createdAt,value
2019-03-16T00:02:59.582Z,87.65
2019-03-16T00:08:18.150Z,86.44
2019-03-16T00:13:37.680Z,86.30
2019-03-16T00:18:59.980Z,86.56
2019-03-16T00:24:22.102Z,89.00
2019-03-16T00:29:41.672Z,91.93
2019-03-16T00:35:01.373Z,93.55
2019-03-16T00:40:22.728Z,95.83
2019-03-16T00:45:41.269Z,97.10
2019-03-16T00:51:00.281Z,98.61
2019-03-16T00:56:18.915Z,99.80
2019-03-16T01:01:38.002Z,100.00
2019-03-16T01:06:57.700Z,100.00
2019-03-16T01:12:16.772Z,95.47
2019-03-16T01:17:35.413Z,90.01
2019-03-16T01:22:55.131Z,89.46
2019-03-16T01:28:15.559Z,89.34
2019-03-16T01:33:32.163Z,87.00
2019-03-16T01:38:51.682Z,88.06
2019-03-16T01:44:15.155Z,88.47
2019-03-16T01:49:29.805Z,88.61
2019-03-16T01:54:48.903Z,87.44
2019-03-16T02:00:28.757Z,86.70
2019-03-16T02:05:48.842Z,86.21
2019-03-16T02:11:08.941Z,85.94
2019-03-16T02:16:29.757Z,85.88
2019-03-16T02:21:51.357Z,86.68
2019-03-16T02:27:10.427Z,87.79
2019-03-16T02:32:29.086Z,88.02
2019-03-16T02:37:47.657Z,88.69
2019-03-16T02:43:06.307Z,88.32
2019-03-16T02:48:44.192Z,87.47
2019-03-16T02:54:07.675Z,88.58
2019-03-16T02:59:27.891Z,89.81
2019-03-16T03:04:47.990Z,89.79
2019-03-16T03:10:09.511Z,89.50
2019-03-16T03:15:29.526Z,91.66
2019-03-16T03:20:48.074Z,92.42
2019-03-16T03:26:08.935Z,93.43
2019-03-16T03:32:06.105Z,94.67
2019-03-16T03:37:25.435Z,95.49
2019-03-16T03:42:45.529Z,96.26
2019-03-16T03:48:06.099Z,96.50
2019-03-16T03:53:26.140Z,96.83
2019-03-16T03:58:46.464Z,97.04
2019-03-16T04:04:15.529Z,97.64
2019-03-16T04:09:28.920Z,98.61
2019-03-16T04:14:48.366Z,99.16
2019-03-16T04:25:29.513Z,99.55
2019-03-16T04:30:48.051Z,99.85
2019-03-16T04:36:07.160Z,100.00
2019-03-16T04:41:25.800Z,100.00
2019-03-16T04:46:47.594Z,100.00
2019-03-16T04:52:06.223Z,100.00
2019-03-16T04:57:24.864Z,100.00
2019-03-16T05:02:44.966Z,100.00
2019-03-16T05:08:03.429Z,100.00
2019-03-16T05:13:22.029Z,100.00
2019-03-16T05:24:21.022Z,100.00
2019-03-16T05:29:40.898Z,100.00
2019-03-16T05:34:59.325Z,100.00
2019-03-16T05:40:19.767Z,100.00
2019-03-16T05:45:39.731Z,100.00
2019-03-16T05:50:58.573Z,100.00
2019-03-16T05:56:18.736Z,100.00
2019-03-16T06:01:37.362Z,100.00
2019-03-16T06:07:00.251Z,100.00
2019-03-16T06:12:18.906Z,100.00
2019-03-16T06:17:38.982Z,100.00
2019-03-16T06:22:58.418Z,100.00
2019-03-16T06:28:17.006Z,100.00
2019-03-16T06:33:37.317Z,100.00
2019-03-16T06:38:57.914Z,100.00
2019-03-16T06:44:18.455Z,100.00
2019-03-16T06:49:37.039Z,100.00
2019-03-16T06:54:55.581Z,100.00
2019-03-16T07:00:17.348Z,100.00
2019-03-16T07:05:38.876Z,100.00
2019-03-16T07:10:57.655Z,100.00
2019-03-16T07:16:17.683Z,100.00
2019-03-16T07:21:36.327Z,100.00
2019-03-16T07:26:54.629Z,100.00
2019-03-16T07:32:13.166Z,100.00
2019-03-16T07:37:31.897Z,100.00
2019-03-16T07:42:50.522Z,100.00
2019-03-16T07:48:09.212Z,100.00
2019-03-16T07:53:29.312Z,100.00
2019-03-16T07:58:47.935Z,100.00
2019-03-16T08:04:11.055Z,100.00
2019-03-16T08:20:08.191Z,100.00
2019-03-16T08:25:28.299Z,100.00
2019-03-16T08:30:49.252Z,100.00
2019-03-16T08:36:08.568Z,99.37
2019-03-16T08:41:30.271Z,98.43
2019-03-16T08:46:57.591Z,97.88
2019-03-16T08:52:17.669Z,97.57
2019-03-16T08:57:39.077Z,97.70
2019-03-16T09:02:58.329Z,97.98
2019-03-16T09:13:57.496Z,97.26
2019-03-16T09:19:16.113Z,96.83
2019-03-16T09:24:36.069Z,96.50
2019-03-16T09:29:54.736Z,97.37
2019-03-16T09:40:32.691Z,96.80
2019-03-16T09:45:52.998Z,96.32
2019-03-16T09:51:11.899Z,96.46
2019-03-16T09:56:30.470Z,96.82
2019-03-16T10:01:49.257Z,97.09
2019-03-16T10:07:09.253Z,96.87
2019-03-16T10:12:28.160Z,95.60
2019-03-16T10:17:47.905Z,92.61
2019-03-16T10:23:11.015Z,91.66
2019-03-16T10:28:29.686Z,90.04
2019-03-16T10:34:16.965Z,87.43
2019-03-16T10:39:38.879Z,87.43
2019-03-16T10:56:09.849Z,84.26
2019-03-16T11:12:41.028Z,84.99
2019-03-16T11:30:06.849Z,85.21
2019-03-16T11:35:30.888Z,83.19
2019-03-16T12:48:31.717Z,81.52
2019-03-16T16:45:55.586Z,75.75
2019-03-16T17:31:16.397Z,75.80
2019-03-16T18:50:42.347Z,75.10
2019-03-16T19:30:05.722Z,74.36
2019-03-16T20:49:18.672Z,74.61
2019-03-16T22:46:11.927Z,76.48
